Time;durP1;ratioP1;P1;durP2;ratioP2;P2;SDS_P1;SDS_P2;PMS_P1;PMS_P2;Temp;Humidity;BMP_temperature;BMP_pressure;BME280_temperature;BME280_humidity;BME280_pressure;Samples;Min_cycle;Max_cycle;Signal;HPM_P1;HPM_P2
2021/08/29 00:02:17;;;;;;;;;7.00;5.00;;;;;;;;5018782;28;46549;-84
2021/08/29 00:04:43;;;;;;;;;5.00;5.00;;;;;;;;5016569;28;45516;-83
2021/08/29 00:07:08;;;;;;;;;4.00;4.00;;;;;;;;5016725;28;45430;-84
2021/08/29 00:09:34;;;;;;;;;6.75;4.00;;;;;;;;5017288;28;45651;-83
2021/08/29 00:11:59;;;;;;;;;3.75;3.75;;;;;;;;5018127;28;45449;-84
2021/08/29 00:14:24;;;;;;;;;3.33;3.33;;;;;;;;5017204;28;45599;-83
2021/08/29 00:16:49;;;;;;;;;6.00;4.67;;;;;;;;5016524;28;45445;-84
2021/08/29 00:19:15;;;;;;;;;7.67;6.67;;;;;;;;5015836;28;45458;-84
2021/08/29 00:21:40;;;;;;;;;7.00;5.00;;;;;;;;5018336;28;48158;-84
2021/08/29 00:24:05;;;;;;;;;5.00;4.00;;;;;;;;5019517;28;45556;-82
2021/08/29 00:26:30;;;;;;;;;6.00;4.00;;;;;;;;5016653;28;45467;-83
2021/08/29 00:28:56;;;;;;;;;5.00;5.00;;;;;;;;5018144;28;45546;-84
2021/08/29 00:31:21;;;;;;;;;8.25;6.50;;;;;;;;5015536;28;47128;-84
2021/08/29 00:33:46;;;;;;;;;4.00;4.00;;;;;;;;5018152;28;45469;-86
2021/08/29 00:36:11;;;;;;;;;5.00;5.00;;;;;;;;5028057;28;45421;-83
2021/08/29 00:38:37;;;;;;;;;7.33;4.33;;;;;;;;5030380;28;45596;-83
2021/08/29 00:41:05;;;;;;;;;7.67;4.00;;;;;;;;5027044;28;45915;-84
2021/08/29 00:43:30;;;;;;;;;8.25;5.00;;;;;;;;5024285;28;45524;-84
2021/08/29 00:45:55;;;;;;;;;5.33;5.33;;;;;;;;5033842;28;45560;-83
2021/08/29 00:48:21;;;;;;;;;7.33;4.00;;;;;;;;5010176;28;45369;-82
2021/08/29 00:50:46;;;;;;;;;7.75;5.00;;;;;;;;5020563;28;50481;-84
2021/08/29 00:53:21;;;;;;;;;3.75;3.75;;;;;;;;5023391;28;45515;-83
2021/08/29 00:55:47;;;;;;;;;5.50;4.00;;;;;;;;5028896;28;45491;-83
2021/08/29 00:58:12;;;;;;;;;6.75;4.00;;;;;;;;5030252;28;45671;-83
2021/08/29 01:00:39;;;;;;;;;5.00;4.33;;;;;;;;5025381;28;47006;-83
2021/08/29 01:03:04;;;;;;;;;3.50;3.25;;;;;;;;5028723;28;45539;-84
2021/08/29 01:05:34;;;;;;;;;6.33;4.00;;;;;;;;5030176;28;45598;-83
2021/08/29 01:08:05;;;;;;;;;8.00;4.00;;;;;;;;5027290;28;45500;-83
2021/08/29 01:10:35;;;;;;;;;4.75;3.50;;;;;;;;5024232;28;46030;-84
2021/08/29 01:13:00;;;;;;;;;5.50;4.75;;;;;;;;5028624;28;45475;-84
2021/08/29 01:15:27;;;;;;;;;3.75;3.50;;;;;;;;5029950;28;45320;-84
2021/08/29 01:17:53;;;;;;;;;9.50;5.00;;;;;;;;5025646;28;45654;-82
2021/08/29 01:20:37;;;;;;;;;4.50;3.00;;;;;;;;5029202;28;47497;-81
2021/08/29 01:23:05;;;;;;;;;3.25;3.25;;;;;;;;5029863;28;45957;-83
2021/08/29 01:25:33;;;;;;;;;4.75;3.00;;;;;;;;5030182;28;45510;-83
2021/08/29 01:28:01;;;;;;;;;6.75;5.50;;;;;;;;5019612;28;45586;-83
2021/08/29 01:30:27;;;;;;;;;6.75;3.25;;;;;;;;5029887;28;45516;-83
2021/08/29 01:32:53;;;;;;;;;5.50;4.00;;;;;;;;5028107;28;46063;-82
2021/08/29 01:35:19;;;;;;;;;3.00;3.00;;;;;;;;5031692;28;45350;-82
2021/08/29 01:37:45;;;;;;;;;5.50;4.00;;;;;;;;5028246;28;45629;-83
2021/08/29 01:40:10;;;;;;;;;4.00;4.00;;;;;;;;5031199;28;45905;-83
2021/08/29 01:42:37;;;;;;;;;5.00;3.25;;;;;;;;5030630;28;45359;-84
2021/08/29 01:45:02;;;;;;;;;5.50;4.00;;;;;;;;5028499;28;45625;-83
2021/08/29 01:47:28;;;;;;;;;7.75;5.50;;;;;;;;5027886;28;45597;-84
2021/08/29 01:49:53;;;;;;;;;7.50;5.00;;;;;;;;5019971;28;47640;-84
2021/08/29 01:52:18;;;;;;;;;5.00;5.00;;;;;;;;5030195;28;45932;-83
2021/08/29 01:54:43;;;;;;;;;6.00;4.25;;;;;;;;5030906;28;45359;-83
2021/08/29 01:57:13;;;;;;;;;3.67;3.33;;;;;;;;5028808;28;45366;-84
2021/08/29 01:59:39;;;;;;;;;4.00;4.00;;;;;;;;5030526;28;47469;-83
2021/08/29 02:02:04;;;;;;;;;5.00;3.50;;;;;;;;5018662;28;45542;-84
2021/08/29 02:04:30;;;;;;;;;6.25;3.75;;;;;;;;5023244;28;45571;-84
2021/08/29 02:07:25;;;;;;;;;4.75;4.75;;;;;;;;5032501;28;45438;-83
2021/08/29 02:09:58;;;;;;;;;7.00;2.75;;;;;;;;5029913;28;48175;-79
2021/08/29 02:12:23;;;;;;;;;4.00;3.75;;;;;;;;5028269;28;45643;-83
2021/08/29 02:15:13;;;;;;;;;6.75;5.50;;;;;;;;5029383;28;45402;-82
2021/08/29 02:17:40;;;;;;;;;5.00;4.00;;;;;;;;5028846;28;45703;-83
2021/08/29 02:20:07;;;;;;;;;4.75;3.00;;;;;;;;5028755;28;45857;-83
2021/08/29 02:22:34;;;;;;;;;6.00;5.00;;;;;;;;5027986;28;45614;-83
2021/08/29 02:24:59;;;;;;;;;2.00;2.00;;;;;;;;5034944;28;45445;-83
2021/08/29 02:27:25;;;;;;;;;4.75;4.00;;;;;;;;5031763;28;45473;-80
2021/08/29 02:29:50;;;;;;;;;6.33;3.33;;;;;;;;5031594;28;48195;-83
2021/08/29 02:32:16;;;;;;;;;5.25;5.00;;;;;;;;5021392;28;45786;-83
2021/08/29 02:34:42;;;;;;;;;5.00;4.00;;;;;;;;5031970;28;45556;-84
2021/08/29 02:37:09;;;;;;;;;6.75;4.00;;;;;;;;5035466;28;45386;-84
2021/08/29 02:39:35;;;;;;;;;7.75;6.00;;;;;;;;5033337;28;47377;-83
2021/08/29 02:42:01;;;;;;;;;4.00;4.00;;;;;;;;5031270;28;45894;-83
2021/08/29 02:44:27;;;;;;;;;6.75;4.75;;;;;;;;5031366;28;45724;-83
2021/08/29 02:46:53;;;;;;;;;5.50;4.50;;;;;;;;5031410;28;45500;-83
2021/08/29 02:49:22;;;;;;;;;7.00;5.75;;;;;;;;5026134;28;46604;-84
2021/08/29 02:51:50;;;;;;;;;6.00;3.75;;;;;;;;5029752;28;45940;-83
2021/08/29 02:54:16;;;;;;;;;7.25;3.75;;;;;;;;5030808;28;45426;-83
2021/08/29 02:56:43;;;;;;;;;8.00;4.50;;;;;;;;5031621;28;45476;-83
2021/08/29 02:59:08;;;;;;;;;5.75;3.25;;;;;;;;5026488;28;45675;-83
2021/08/29 03:01:33;;;;;;;;;4.75;3.00;;;;;;;;5031453;28;45677;-83
2021/08/29 03:03:59;;;;;;;;;3.33;3.33;;;;;;;;5034408;28;45619;-83
2021/08/29 03:06:24;;;;;;;;;5.00;5.00;;;;;;;;5031828;28;45997;-82
2021/08/29 03:08:49;;;;;;;;;4.00;3.75;;;;;;;;5030860;28;46744;-84
2021/08/29 03:11:16;;;;;;;;;6.50;5.00;;;;;;;;5031746;28;45777;-83
2021/08/29 03:13:42;;;;;;;;;6.00;4.25;;;;;;;;5031075;28;45491;-83
2021/08/29 03:16:07;;;;;;;;;6.33;5.00;;;;;;;;5033481;28;45943;-82
2021/08/29 03:18:33;;;;;;;;;7.33;5.00;;;;;;;;5032392;28;45491;-84
2021/08/29 03:20:58;;;;;;;;;7.75;4.75;;;;;;;;5027186;28;46019;-83
2021/08/29 03:23:24;;;;;;;;;6.50;5.00;;;;;;;;5032297;28;45499;-83
2021/08/29 03:25:49;;;;;;;;;4.50;4.00;;;;;;;;5031368;28;45487;-83
2021/08/29 03:28:14;;;;;;;;;7.67;4.33;;;;;;;;5033508;28;46079;-82
2021/08/29 03:30:39;;;;;;;;;6.00;5.50;;;;;;;;5028015;28;45530;-83
2021/08/29 03:33:05;;;;;;;;;4.00;4.00;;;;;;;;5030533;28;45453;-81
2021/08/29 03:35:30;;;;;;;;;6.75;6.75;;;;;;;;5029923;28;45434;-83
2021/08/29 03:37:56;;;;;;;;;7.00;5.75;;;;;;;;5031747;28;45736;-83
2021/08/29 03:40:22;;;;;;;;;7.00;5.00;;;;;;;;5030953;28;45656;-83
2021/08/29 03:42:48;;;;;;;;;7.25;4.00;;;;;;;;5034277;28;45647;-82
2021/08/29 03:45:13;;;;;;;;;8.00;5.25;;;;;;;;5031752;28;45491;-83
2021/08/29 03:47:39;;;;;;;;;6.00;5.25;;;;;;;;5030998;28;47576;-83
2021/08/29 03:50:05;;;;;;;;;5.25;4.50;;;;;;;;5018120;28;45707;-84
2021/08/29 03:52:31;;;;;;;;;10.75;5.00;;;;;;;;5026352;28;45351;-82
2021/08/29 03:54:57;;;;;;;;;6.00;6.00;;;;;;;;5032222;28;45713;-82
2021/08/29 03:57:22;;;;;;;;;7.00;5.75;;;;;;;;5031167;28;46229;-83
2021/08/29 03:59:48;;;;;;;;;7.25;6.25;;;;;;;;5030718;28;45379;-83
2021/08/29 04:02:13;;;;;;;;;4.50;4.25;;;;;;;;5030581;28;45426;-83
2021/08/29 04:04:38;;;;;;;;;6.33;5.33;;;;;;;;5030142;28;45508;-83
2021/08/29 04:07:05;;;;;;;;;7.00;3.25;;;;;;;;5033339;28;45997;-83
2021/08/29 04:09:31;;;;;;;;;4.50;4.50;;;;;;;;5029119;28;46042;-83
2021/08/29 04:11:57;;;;;;;;;5.25;5.25;;;;;;;;5030302;28;45372;-83
2021/08/29 04:14:22;;;;;;;;;10.25;5.25;;;;;;;;5029080;28;45356;-82
2021/08/29 04:16:49;;;;;;;;;5.25;4.50;;;;;;;;5029955;28;46330;-84
2021/08/29 04:19:15;;;;;;;;;5.00;4.25;;;;;;;;5030665;28;45459;-84
2021/08/29 04:21:41;;;;;;;;;4.00;4.00;;;;;;;;5031728;28;45566;-84
2021/08/29 04:24:06;;;;;;;;;7.25;6.00;;;;;;;;5029201;28;45480;-84
2021/08/29 04:26:32;;;;;;;;;7.00;6.00;;;;;;;;5029120;28;46244;-83
2021/08/29 04:28:57;;;;;;;;;6.00;4.00;;;;;;;;5029669;28;45442;-83
2021/08/29 04:31:24;;;;;;;;;5.50;4.50;;;;;;;;5030952;28;45415;-82
2021/08/29 04:33:53;;;;;;;;;7.00;5.00;;;;;;;;5030856;28;45654;-84
2021/08/29 04:36:18;;;;;;;;;8.75;4.00;;;;;;;;5029034;28;47001;-83
2021/08/29 04:38:43;;;;;;;;;6.00;5.00;;;;;;;;5030243;28;45499;-84
2021/08/29 04:41:08;;;;;;;;;6.00;5.00;;;;;;;;5031620;28;46403;-83
2021/08/29 04:43:34;;;;;;;;;5.00;4.67;;;;;;;;5028813;28;45368;-84
2021/08/29 04:45:59;;;;;;;;;7.00;4.67;;;;;;;;5033750;28;45913;-83
2021/08/29 04:48:24;;;;;;;;;7.25;4.25;;;;;;;;5028553;28;45397;-82
2021/08/29 04:50:50;;;;;;;;;4.67;4.67;;;;;;;;5029062;28;45716;-84
2021/08/29 04:53:15;;;;;;;;;6.00;5.00;;;;;;;;5029609;28;45355;-83
2021/08/29 04:55:41;;;;;;;;;6.50;5.00;;;;;;;;5029598;28;45636;-84
2021/08/29 04:58:06;;;;;;;;;5.50;4.00;;;;;;;;5031065;28;45289;-83
2021/08/29 05:00:31;;;;;;;;;7.00;5.00;;;;;;;;5028609;28;45459;-84
2021/08/29 05:02:56;;;;;;;;;6.67;4.33;;;;;;;;5026393;28;45306;-84
2021/08/29 05:05:21;;;;;;;;;6.00;6.00;;;;;;;;5030796;28;45998;-83
2021/08/29 05:07:47;;;;;;;;;7.33;5.33;;;;;;;;5027950;28;45317;-82
2021/08/29 05:10:12;;;;;;;;;4.50;4.50;;;;;;;;5030848;28;45695;-82
2021/08/29 05:12:37;;;;;;;;;5.00;5.00;;;;;;;;5024940;28;45484;-80
2021/08/29 05:15:03;;;;;;;;;5.33;4.00;;;;;;;;5028316;28;47068;-83
2021/08/29 05:17:28;;;;;;;;;4.75;3.75;;;;;;;;5029534;28;45562;-81
2021/08/29 05:19:53;;;;;;;;;11.00;5.00;;;;;;;;5028347;28;45372;-84
2021/08/29 05:22:18;;;;;;;;;6.33;5.00;;;;;;;;5031503;28;45417;-83
2021/08/29 05:24:43;;;;;;;;;3.67;3.67;;;;;;;;5030342;28;46899;-84
2021/08/29 05:27:09;;;;;;;;;6.00;4.00;;;;;;;;5028294;28;45651;-84
2021/08/29 05:29:34;;;;;;;;;8.33;4.00;;;;;;;;5028008;28;45460;-83
2021/08/29 05:31:59;;;;;;;;;8.33;4.33;;;;;;;;5029533;28;45321;-84
2021/08/29 05:34:25;;;;;;;;;5.50;5.00;;;;;;;;5030140;28;45541;-84
2021/08/29 05:36:50;;;;;;;;;6.50;5.00;;;;;;;;5031511;28;45585;-83
2021/08/29 05:39:15;;;;;;;;;7.67;5.00;;;;;;;;5028841;28;45352;-83
2021/08/29 05:41:40;;;;;;;;;7.33;6.00;;;;;;;;5031108;28;45345;-83
2021/08/29 05:44:05;;;;;;;;;6.67;5.00;;;;;;;;5028702;28;45909;-83
2021/08/29 05:46:31;;;;;;;;;6.00;6.00;;;;;;;;5029059;28;45445;-84
2021/08/29 05:48:56;;;;;;;;;8.00;4.33;;;;;;;;5032163;28;45492;-83
2021/08/29 05:51:21;;;;;;;;;6.67;5.67;;;;;;;;5023581;28;45496;-83
2021/08/29 05:53:46;;;;;;;;;7.00;5.00;;;;;;;;5029311;28;45527;-87
2021/08/29 05:56:12;;;;;;;;;6.00;5.00;;;;;;;;5030523;28;45501;-83
2021/08/29 05:58:37;;;;;;;;;9.00;5.75;;;;;;;;5033745;28;45396;-83
2021/08/29 06:01:03;;;;;;;;;6.75;5.25;;;;;;;;5039760;28;45434;-82
2021/08/29 06:03:28;;;;;;;;;9.50;7.00;;;;;;;;5036858;28;48245;-84
2021/08/29 06:05:53;;;;;;;;;6.00;4.25;;;;;;;;5035262;28;45379;-82
2021/08/29 06:08:19;;;;;;;;;11.00;6.00;;;;;;;;5033923;28;45587;-84
2021/08/29 06:10:44;;;;;;;;;5.00;5.00;;;;;;;;5031982;28;46784;-85
2021/08/29 06:13:09;;;;;;;;;8.33;5.00;;;;;;;;5022045;28;47857;-81
2021/08/29 06:15:34;;;;;;;;;8.00;5.00;;;;;;;;5028846;28;45480;-83
2021/08/29 06:18:00;;;;;;;;;6.33;5.00;;;;;;;;5023359;28;45574;-84
2021/08/29 06:20:25;;;;;;;;;10.67;6.00;;;;;;;;5022840;28;45654;-84
2021/08/29 06:22:51;;;;;;;;;4.00;4.00;;;;;;;;5023648;28;45550;-82
2021/08/29 06:25:16;;;;;;;;;8.75;6.00;;;;;;;;5024585;28;45620;-83
2021/08/29 06:27:41;;;;;;;;;5.33;4.33;;;;;;;;5022818;28;45485;-83
2021/08/29 06:30:07;;;;;;;;;7.67;6.00;;;;;;;;5022639;28;45792;-83
2021/08/29 06:32:32;;;;;;;;;6.00;6.00;;;;;;;;5022313;28;48376;-84
2021/08/29 06:34:57;;;;;;;;;5.67;4.67;;;;;;;;5026852;28;45579;-84
2021/08/29 06:37:22;;;;;;;;;5.33;5.33;;;;;;;;5032123;28;45723;-84
2021/08/29 06:39:48;;;;;;;;;8.00;5.00;;;;;;;;5020338;28;45733;-83
2021/08/29 06:42:13;;;;;;;;;7.33;4.00;;;;;;;;5024980;28;48386;-84
2021/08/29 06:44:38;;;;;;;;;10.33;5.00;;;;;;;;5019054;28;45451;-82
2021/08/29 06:47:03;;;;;;;;;6.00;5.00;;;;;;;;5023175;28;45610;-84
2021/08/29 06:49:29;;;;;;;;;6.00;5.00;;;;;;;;5018274;28;45300;-83
2021/08/29 06:51:54;;;;;;;;;10.00;6.25;;;;;;;;5021387;28;47065;-83
2021/08/29 06:54:19;;;;;;;;;6.67;6.00;;;;;;;;5028396;28;45628;-84
2021/08/29 06:56:44;;;;;;;;;7.67;6.00;;;;;;;;5024151;28;45311;-81
2021/08/29 06:59:09;;;;;;;;;8.67;5.00;;;;;;;;5032212;28;45544;-83
2021/08/29 07:01:35;;;;;;;;;8.75;6.50;;;;;;;;5033383;28;46436;-82
2021/08/29 07:04:00;;;;;;;;;7.00;6.00;;;;;;;;5031962;28;45446;-81
2021/08/29 07:06:25;;;;;;;;;7.00;6.00;;;;;;;;5030439;28;45342;-83
2021/08/29 07:08:50;;;;;;;;;7.67;6.00;;;;;;;;5027509;28;45634;-82
2021/08/29 07:11:15;;;;;;;;;6.33;6.33;;;;;;;;5029060;28;45497;-82
2021/08/29 07:13:41;;;;;;;;;7.67;5.00;;;;;;;;5031151;28;45438;-82
2021/08/29 07:16:06;;;;;;;;;8.67;4.67;;;;;;;;5026781;28;45456;-81
2021/08/29 07:18:31;;;;;;;;;5.00;5.00;;;;;;;;5021957;28;45526;-83
2021/08/29 07:20:56;;;;;;;;;4.00;4.00;;;;;;;;5019577;28;45548;-82
2021/08/29 07:23:22;;;;;;;;;5.00;5.00;;;;;;;;5028003;28;45487;-84
2021/08/29 07:25:47;;;;;;;;;7.00;6.50;;;;;;;;5027897;28;45822;-83
2021/08/29 07:28:12;;;;;;;;;8.00;5.00;;;;;;;;5025346;28;45467;-81
2021/08/29 07:30:37;;;;;;;;;5.25;5.25;;;;;;;;5028495;28;47061;-83
2021/08/29 07:33:03;;;;;;;;;8.00;5.00;;;;;;;;5030500;28;45384;-84
2021/08/29 07:35:28;;;;;;;;;7.33;5.00;;;;;;;;5032581;28;45451;-83
2021/08/29 07:37:53;;;;;;;;;5.00;5.00;;;;;;;;5031392;28;45686;-83
2021/08/29 07:40:20;;;;;;;;;7.00;6.00;;;;;;;;5028798;28;48422;-83
2021/08/29 07:42:48;;;;;;;;;4.25;4.25;;;;;;;;5035088;28;46028;-83
2021/08/29 07:45:13;;;;;;;;;6.50;5.25;;;;;;;;5032523;28;45493;-83
2021/08/29 07:47:39;;;;;;;;;9.25;6.00;;;;;;;;5033735;28;45284;-83
2021/08/29 07:50:05;;;;;;;;;5.00;4.33;;;;;;;;5017113;28;46817;-83
2021/08/29 07:52:30;;;;;;;;;5.25;4.75;;;;;;;;5026616;28;46022;-83
2021/08/29 07:54:55;;;;;;;;;6.75;5.00;;;;;;;;5033029;28;45325;-84
2021/08/29 07:57:20;;;;;;;;;4.67;4.00;;;;;;;;5031885;28;45631;-83
2021/08/29 07:59:46;;;;;;;;;6.50;5.25;;;;;;;;5029994;28;48110;-84
2021/08/29 08:02:11;;;;;;;;;6.67;4.00;;;;;;;;5030358;28;46046;-83
2021/08/29 08:04:37;;;;;;;;;3.75;3.50;;;;;;;;5031685;28;45429;-83
2021/08/29 08:07:02;;;;;;;;;6.00;4.75;;;;;;;;5035260;28;45355;-84
2021/08/29 08:09:27;;;;;;;;;4.25;4.25;;;;;;;;5030442;28;48366;-83
2021/08/29 08:11:52;;;;;;;;;3.67;3.00;;;;;;;;5030665;28;45568;-83
2021/08/29 08:14:18;;;;;;;;;5.67;5.00;;;;;;;;5031693;28;45575;-84
2021/08/29 08:16:43;;;;;;;;;7.67;4.00;;;;;;;;5032502;28;45450;-84
2021/08/29 08:19:08;;;;;;;;;6.00;5.33;;;;;;;;5033473;28;45767;-84
2021/08/29 08:21:33;;;;;;;;;7.00;5.33;;;;;;;;5032078;28;45442;-83
2021/08/29 08:23:58;;;;;;;;;5.33;4.00;;;;;;;;5030271;28;45334;-84
2021/08/29 08:26:24;;;;;;;;;4.00;4.00;;;;;;;;5030391;28;45387;-85
2021/08/29 08:28:49;;;;;;;;;4.00;4.00;;;;;;;;5030898;28;48321;-84
2021/08/29 08:31:14;;;;;;;;;3.33;3.33;;;;;;;;5026517;28;45511;-80
2021/08/29 08:33:39;;;;;;;;;4.25;4.25;;;;;;;;5020503;28;45431;-83
2021/08/29 08:36:05;;;;;;;;;4.00;4.00;;;;;;;;5020193;28;46061;-84
2021/08/29 08:38:30;;;;;;;;;6.00;4.50;;;;;;;;5015515;28;45929;-84
2021/08/29 08:40:55;;;;;;;;;4.33;4.33;;;;;;;;5018010;28;45464;-83
2021/08/29 08:43:20;;;;;;;;;7.00;5.75;;;;;;;;5020515;28;45520;-84
2021/08/29 08:45:47;;;;;;;;;4.50;4.50;;;;;;;;5017107;28;45410;-84
2021/08/29 08:48:12;;;;;;;;;4.50;4.50;;;;;;;;5015823;28;47937;-83
2021/08/29 08:50:38;;;;;;;;;6.50;3.50;;;;;;;;5013224;28;45922;-83
2021/08/29 08:53:05;;;;;;;;;4.75;4.75;;;;;;;;5018321;28;45629;-84
2021/08/29 08:55:30;;;;;;;;;4.00;3.00;;;;;;;;5017073;28;45567;-83
2021/08/29 08:57:56;;;;;;;;;6.75;4.00;;;;;;;;5017918;28;45581;-83
2021/08/29 09:00:21;;;;;;;;;3.00;3.00;;;;;;;;5017337;28;45434;-84
2021/08/29 09:02:46;;;;;;;;;4.00;4.00;;;;;;;;5018401;28;45497;-84
2021/08/29 09:05:12;;;;;;;;;4.25;3.00;;;;;;;;5017228;28;45658;-83
2021/08/29 09:07:37;;;;;;;;;5.50;3.50;;;;;;;;5016565;28;47958;-85
2021/08/29 09:10:03;;;;;;;;;3.00;3.00;;;;;;;;5018906;28;45453;-82
2021/08/29 09:12:28;;;;;;;;;4.25;4.25;;;;;;;;5015712;28;45777;-84
2021/08/29 09:14:57;;;;;;;;;3.67;3.33;;;;;;;;5018007;28;45454;-82
2021/08/29 09:17:33;;;;;;;;;3.00;3.00;;;;;;;;5016067;28;48263;-84
2021/08/29 09:20:17;;;;;;;;;4.25;3.00;;;;;;;;5015543;28;45410;-82
2021/08/29 09:22:43;;;;;;;;;6.25;3.00;;;;;;;;5015374;28;45443;-82
2021/08/29 09:25:20;;;;;;;;;5.00;3.00;;;;;;;;5015960;28;45482;-82
2021/08/29 09:27:46;;;;;;;;;4.00;3.00;;;;;;;;5014828;28;48514;-83
2021/08/29 09:30:15;;;;;;;;;3.00;3.00;;;;;;;;5015019;28;45904;-83
2021/08/29 09:32:51;;;;;;;;;4.75;2.25;;;;;;;;5014345;28;45549;-83
2021/08/29 09:35:16;;;;;;;;;5.75;4.00;;;;;;;;5016354;28;45718;-83
2021/08/29 09:37:41;;;;;;;;;6.25;2.25;;;;;;;;5020911;28;45419;-82
2021/08/29 09:40:13;;;;;;;;;3.00;3.00;;;;;;;;5027076;28;45737;-82
2021/08/29 09:42:40;;;;;;;;;2.75;2.75;;;;;;;;5023707;28;45915;-83
2021/08/29 09:45:05;;;;;;;;;4.25;3.00;;;;;;;;5023530;28;45629;-82
2021/08/29 09:47:31;;;;;;;;;4.00;3.00;;;;;;;;5026963;28;45564;-81
2021/08/29 09:49:59;;;;;;;;;3.00;2.00;;;;;;;;5023405;28;45483;-82
2021/08/29 09:52:26;;;;;;;;;4.00;2.75;;;;;;;;5031768;28;45458;-83
2021/08/29 09:54:53;;;;;;;;;2.75;2.75;;;;;;;;5024004;28;45495;-81
2021/08/29 09:57:19;;;;;;;;;2.75;2.75;;;;;;;;5021124;28;48056;-83
2021/08/29 09:59:46;;;;;;;;;3.75;2.00;;;;;;;;5018025;28;45536;-82
2021/08/29 10:02:12;;;;;;;;;3.00;3.00;;;;;;;;5020713;28;45527;-81
2021/08/29 10:04:38;;;;;;;;;3.25;3.25;;;;;;;;5018812;28;45620;-83
2021/08/29 10:07:11;;;;;;;;;2.75;2.50;;;;;;;;5015759;28;48525;-82
2021/08/29 10:09:36;;;;;;;;;3.50;3.00;;;;;;;;5015107;28;46068;-83
2021/08/29 10:12:02;;;;;;;;;1.67;1.67;;;;;;;;5019481;28;45607;-83
2021/08/29 10:14:28;;;;;;;;;4.50;3.00;;;;;;;;5021076;28;45446;-82
2021/08/29 10:16:54;;;;;;;;;3.00;3.00;;;;;;;;5017744;28;45509;-82
2021/08/29 10:19:19;;;;;;;;;2.75;2.00;;;;;;;;5019439;28;45443;-81
2021/08/29 10:21:45;;;;;;;;;5.00;3.00;;;;;;;;5017588;28;45533;-82
2021/08/29 10:24:12;;;;;;;;;3.00;3.00;;;;;;;;5021487;28;45360;-81
2021/08/29 10:26:40;;;;;;;;;2.50;2.00;;;;;;;;5020245;28;46567;-83
2021/08/29 10:29:07;;;;;;;;;6.00;3.50;;;;;;;;5042776;28;45254;-82
2021/08/29 10:31:38;;;;;;;;;2.00;2.00;;;;;;;;5043305;28;45548;-82
2021/08/29 10:34:04;;;;;;;;;4.75;4.00;;;;;;;;5047900;28;44796;-80
2021/08/29 10:36:30;;;;;;;;;3.25;3.25;;;;;;;;5048429;28;46634;-82
2021/08/29 10:38:55;;;;;;;;;4.00;2.67;;;;;;;;5041720;28;44820;-79
2021/08/29 10:41:21;;;;;;;;;2.67;2.00;;;;;;;;5048165;28;45390;-81
2021/08/29 10:43:50;;;;;;;;;3.00;2.00;;;;;;;;5049307;28;46109;-79
2021/08/29 10:46:15;;;;;;;;;2.50;2.50;;;;;;;;5057913;28;45188;-81
2021/08/29 10:48:42;;;;;;;;;5.50;3.00;;;;;;;;5044126;28;45396;-81
2021/08/29 10:51:10;;;;;;;;;3.00;3.00;;;;;;;;5045319;28;45473;-79
2021/08/29 10:53:36;;;;;;;;;3.00;3.00;;;;;;;;5055952;28;45415;-82
2021/08/29 10:56:17;;;;;;;;;4.50;2.00;;;;;;;;5054580;28;47189;-81
2021/08/29 10:58:46;;;;;;;;;7.25;3.00;;;;;;;;5055501;27;45366;-81
2021/08/29 11:01:30;;;;;;;;;8.00;4.00;;;;;;;;5059729;28;44727;-79
2021/08/29 11:03:55;;;;;;;;;6.25;5.25;;;;;;;;5054424;28;45269;-82
2021/08/29 11:06:39;;;;;;;;;7.67;5.33;;;;;;;;5039718;28;45552;-84
2021/08/29 11:09:23;;;;;;;;;5.00;5.00;;;;;;;;5021107;28;46290;-83
2021/08/29 11:11:49;;;;;;;;;5.25;4.00;;;;;;;;5031282;28;45477;-83
2021/08/29 11:14:33;;;;;;;;;5.00;5.00;;;;;;;;5029653;28;45467;-83
2021/08/29 11:17:14;;;;;;;;;6.00;5.50;;;;;;;;5021762;28;46219;-82
2021/08/29 11:19:41;;;;;;;;;5.25;4.00;;;;;;;;5021796;28;45932;-83
2021/08/29 11:22:09;;;;;;;;;5.50;4.00;;;;;;;;5028717;28;45384;-82
2021/08/29 11:24:53;;;;;;;;;7.25;5.00;;;;;;;;5035427;28;45466;-83
2021/08/29 11:27:34;;;;;;;;;6.25;5.00;;;;;;;;5031439;28;46476;-83
2021/08/29 11:30:09;;;;;;;;;5.25;5.00;;;;;;;;5030767;28;46101;-83
2021/08/29 11:32:45;;;;;;;;;6.75;5.00;;;;;;;;5031629;28;45412;-83
2021/08/29 11:35:10;;;;;;;;;5.00;5.00;;;;;;;;5021139;28;45511;-83
2021/08/29 11:37:36;;;;;;;;;5.50;5.00;;;;;;;;5030133;28;48443;-83
2021/08/29 11:40:03;;;;;;;;;6.75;5.00;;;;;;;;5028051;28;45672;-83
2021/08/29 11:42:28;;;;;;;;;5.25;5.00;;;;;;;;5020788;28;45469;-84
2021/08/29 11:44:55;;;;;;;;;7.25;5.25;;;;;;;;5018534;28;45418;-83
2021/08/29 11:47:21;;;;;;;;;4.75;4.75;;;;;;;;5017509;28;45999;-83
2021/08/29 11:49:56;;;;;;;;;4.00;4.00;;;;;;;;5010935;28;45602;-83
2021/08/29 11:52:27;;;;;;;;;4.00;4.00;;;;;;;;5015607;28;45366;-82
2021/08/29 11:55:06;;;;;;;;;4.00;4.00;;;;;;;;5018170;28;45778;-83
2021/08/29 11:57:43;;;;;;;;;4.00;4.00;;;;;;;;5027248;28;47129;-83
2021/08/29 12:00:10;;;;;;;;;5.00;3.75;;;;;;;;5018390;28;45795;-83
2021/08/29 12:02:41;;;;;;;;;5.25;4.25;;;;;;;;5018128;28;45253;-83
2021/08/29 12:05:11;;;;;;;;;5.00;4.00;;;;;;;;5017703;28;45288;-83
2021/08/29 12:07:37;;;;;;;;;3.25;3.25;;;;;;;;5016168;28;48805;-83
2021/08/29 12:10:02;;;;;;;;;5.00;5.00;;;;;;;;5016024;28;45910;-82
2021/08/29 12:12:28;;;;;;;;;8.00;4.00;;;;;;;;5019670;28;45810;-83
2021/08/29 12:14:54;;;;;;;;;5.75;4.50;;;;;;;;5018391;28;45594;-83
2021/08/29 12:17:19;;;;;;;;;5.75;4.75;;;;;;;;5016304;28;48214;-83
2021/08/29 12:19:45;;;;;;;;;6.50;4.00;;;;;;;;5014929;28;45764;-84
2021/08/29 12:22:11;;;;;;;;;4.75;3.50;;;;;;;;5015388;28;45462;-83
2021/08/29 12:24:40;;;;;;;;;3.00;3.00;;;;;;;;5019892;28;45456;-82
2021/08/29 12:27:06;;;;;;;;;6.00;5.50;;;;;;;;5017773;28;45654;-83
2021/08/29 12:29:41;;;;;;;;;3.00;3.00;;;;;;;;5015529;28;45741;-83
2021/08/29 12:32:07;;;;;;;;;3.00;3.00;;;;;;;;5020657;28;46943;-83
2021/08/29 12:34:33;;;;;;;;;2.00;2.00;;;;;;;;5013092;28;45591;-83
2021/08/29 12:37:06;;;;;;;;;3.50;3.50;;;;;;;;5020753;28;48083;-83
2021/08/29 12:39:31;;;;;;;;;5.25;4.00;;;;;;;;5030951;28;45823;-83
2021/08/29 12:42:13;;;;;;;;;4.50;4.00;;;;;;;;5031000;28;45756;-83
2021/08/29 12:44:38;;;;;;;;;4.00;4.00;;;;;;;;5034553;28;45515;-81
2021/08/29 12:47:04;;;;;;;;;2.67;2.67;;;;;;;;5029921;28;46288;-84
2021/08/29 12:49:29;;;;;;;;;5.50;3.75;;;;;;;;5029794;28;45788;-83
2021/08/29 12:51:54;;;;;;;;;4.00;4.00;;;;;;;;5032412;28;45370;-83
2021/08/29 12:54:19;;;;;;;;;4.33;4.33;;;;;;;;5029596;28;45379;-83
2021/08/29 12:56:50;;;;;;;;;4.00;4.00;;;;;;;;5031614;28;45737;-84
2021/08/29 12:59:23;;;;;;;;;5.50;4.00;;;;;;;;5020324;28;45467;-84
2021/08/29 13:01:52;;;;;;;;;4.00;4.00;;;;;;;;5029476;28;45380;-84
2021/08/29 13:04:22;;;;;;;;;3.75;3.75;;;;;;;;5032422;28;45467;-83
2021/08/29 13:06:48;;;;;;;;;4.50;3.00;;;;;;;;5032135;28;46723;-84
2021/08/29 13:09:13;;;;;;;;;4.75;3.50;;;;;;;;5028555;28;45483;-83
2021/08/29 13:11:43;;;;;;;;;2.67;2.67;;;;;;;;5030133;28;45532;-83
2021/08/29 13:14:09;;;;;;;;;5.50;4.50;;;;;;;;5029646;28;45461;-84
2021/08/29 13:16:38;;;;;;;;;4.75;4.00;;;;;;;;5028889;28;46369;-82
2021/08/29 13:19:03;;;;;;;;;4.00;3.50;;;;;;;;5031642;28;45790;-83
2021/08/29 13:21:30;;;;;;;;;5.00;5.00;;;;;;;;5031280;28;45516;-83
2021/08/29 13:23:57;;;;;;;;;5.25;4.25;;;;;;;;5028342;28;45397;-83
2021/08/29 13:26:23;;;;;;;;;5.00;3.75;;;;;;;;5029677;28;46200;-83
2021/08/29 13:28:49;;;;;;;;;4.00;4.00;;;;;;;;5029489;28;45497;-83
2021/08/29 13:31:14;;;;;;;;;6.75;5.00;;;;;;;;5030476;28;45657;-82
2021/08/29 13:33:40;;;;;;;;;4.75;3.50;;;;;;;;5030940;28;45245;-84
2021/08/29 13:36:09;;;;;;;;;5.25;5.25;;;;;;;;5029505;28;45319;-83
2021/08/29 13:38:35;;;;;;;;;5.00;4.25;;;;;;;;5028909;28;45765;-83
2021/08/29 13:41:01;;;;;;;;;4.25;4.25;;;;;;;;5030305;28;45603;-83
2021/08/29 13:43:32;;;;;;;;;4.25;4.25;;;;;;;;5030943;28;45516;-83
2021/08/29 13:45:58;;;;;;;;;3.50;3.50;;;;;;;;5033172;28;46444;-83
2021/08/29 13:48:23;;;;;;;;;6.50;3.50;;;;;;;;5028260;28;45400;-84
2021/08/29 13:50:48;;;;;;;;;4.50;4.00;;;;;;;;5030737;28;45835;-83
2021/08/29 13:53:14;;;;;;;;;6.00;4.00;;;;;;;;5029738;28;45409;-83
2021/08/29 13:55:40;;;;;;;;;5.00;4.50;;;;;;;;5029287;28;48208;-83
2021/08/29 13:58:06;;;;;;;;;4.75;4.75;;;;;;;;5029561;28;45421;-82
2021/08/29 14:00:32;;;;;;;;;3.25;3.25;;;;;;;;5030559;28;45438;-83
2021/08/29 14:03:01;;;;;;;;;5.50;5.50;;;;;;;;5030647;28;45385;-83
2021/08/29 14:05:27;;;;;;;;;6.50;4.50;;;;;;;;5030459;28;45462;-84
2021/08/29 14:07:52;;;;;;;;;3.50;3.50;;;;;;;;5027902;28;45674;-82
2021/08/29 14:10:17;;;;;;;;;7.00;6.00;;;;;;;;5029582;28;45687;-83
2021/08/29 14:12:44;;;;;;;;;4.00;4.00;;;;;;;;5025900;28;45386;-83
2021/08/29 14:15:09;;;;;;;;;3.50;3.50;;;;;;;;5030119;28;46616;-83
2021/08/29 14:17:35;;;;;;;;;7.00;4.00;;;;;;;;5028814;28;45528;-82
2021/08/29 14:20:00;;;;;;;;;5.00;3.67;;;;;;;;5020612;28;45627;-83
2021/08/29 14:22:25;;;;;;;;;4.00;4.00;;;;;;;;5033277;28;45459;-83
2021/08/29 14:24:50;;;;;;;;;4.25;4.25;;;;;;;;5036364;28;45486;-83
2021/08/29 14:27:16;;;;;;;;;4.00;4.00;;;;;;;;5033043;28;45498;-83
2021/08/29 14:29:41;;;;;;;;;5.50;3.00;;;;;;;;5029431;28;45627;-83
2021/08/29 14:32:07;;;;;;;;;4.00;4.00;;;;;;;;5033012;28;45637;-83
2021/08/29 14:34:33;;;;;;;;;4.00;4.00;;;;;;;;5032676;28;46552;-84
2021/08/29 14:36:58;;;;;;;;;5.75;3.75;;;;;;;;5036688;28;45495;-82
2021/08/29 14:39:23;;;;;;;;;4.67;4.67;;;;;;;;5029892;28;45678;-83
2021/08/29 14:41:49;;;;;;;;;6.00;4.50;;;;;;;;5034722;28;45511;-83